.
WxDataArchive / Data Records for 2014-02-24
2014-02-23 February 2014 2014-02-25

Data Records for Monday, 24 February 2014

Time	Temp	Chill	HIndex	Humid	Dewpt	 Wind 	HiWind	WindDir	Rain 	Barom
-----	----	-----	------	-----	-----	------	------	-------	-----	-----
00:00	20.2	20.2	20.2	66	10.7	1	3	248	0.00	30.157 
00:05	20.2	20.2	20.2	66	10.7	1	4	270	0.00	30.157 
00:10	20.0	20.0	20.0	66	10.5	0	2	270	0.00	30.157 
00:15	19.9	19.9	19.9	67	10.7	1	3	270	0.00	30.157 
00:20	19.9	19.9	19.9	67	10.7	1	4	248	0.00	30.157 
00:25	19.9	19.9	19.9	67	10.7	1	5	270	0.00	30.157 
00:30	19.7	19.7	19.7	67	10.5	1	3	248	0.00	30.152 
00:35	19.7	19.7	19.7	67	10.5	0	2	248	0.00	30.152 
00:40	19.5	19.5	19.5	67	10.4	0	2	248	0.00	30.152 
00:45	19.4	19.4	19.4	67	10.3	0	2	248	0.00	30.161 
00:50	19.2	19.2	19.2	68	10.4	1	3	248	0.00	30.161 
00:55	19.2	19.2	19.2	68	10.4	1	3	248	0.00	30.161 
01:00	19.1	19.1	19.1	68	10.3	1	3	248	0.00	30.164 
01:05	19.1	19.1	19.1	69	10.6	0	3	225	0.00	30.164 
01:10	18.9	18.9	18.9	69	10.4	1	3	248	0.00	30.164 
01:15	18.9	18.9	18.9	69	10.4	1	2	248	0.00	30.165 
01:20	18.9	18.9	18.9	68	10.1	1	4	248	0.00	30.165 
01:25	18.9	18.9	18.9	68	10.1	1	4	248	0.00	30.165 
01:30	18.8	18.8	18.8	68	10.0	1	3	248	0.00	30.164 
01:35	18.8	18.8	18.8	68	10.0	1	4	248	0.00	30.164 
01:40	18.6	18.6	18.6	68	9.8	1	3	248	0.00	30.164 
01:45	18.6	18.6	18.6	67	9.5	0	3	270	0.00	30.167 
01:50	18.4	18.4	18.4	67	9.3	0	2	270	0.00	30.167 
01:55	18.4	18.4	18.4	67	9.3	1	3	270	0.00	30.167 
02:00	18.3	18.3	18.3	67	9.2	1	3	270	0.00	30.165 
02:05	18.3	18.3	18.3	67	9.2	1	3	248	0.00	30.165 
02:10	18.1	18.1	18.1	67	9.0	1	3	248	0.00	30.165 
02:15	18.1	18.1	18.1	67	9.0	2	4	248	0.00	30.163 
02:20	18.1	18.1	18.1	66	8.7	1	3	248	0.00	30.163 
02:25	18.1	18.1	18.1	66	8.7	1	3	248	0.00	30.163 
02:30	18.0	18.0	18.0	66	8.6	1	5	248	0.00	30.167 
02:35	18.0	18.0	18.0	66	8.6	1	3	270	0.00	30.167 
02:40	17.8	17.8	17.8	66	8.4	1	3	248	0.00	30.167 
02:45	17.8	17.8	17.8	66	8.4	1	4	270	0.00	30.167 
02:50	17.7	17.7	17.7	66	8.3	1	3	270	0.00	30.167 
02:55	17.7	17.7	17.7	66	8.3	2	4	248	0.00	30.167 
03:00	17.7	17.7	17.7	66	8.3	1	3	270	0.00	30.163 
03:05	17.5	17.5	17.5	66	8.1	1	3	270	0.00	30.163 
03:10	17.3	17.3	17.3	66	7.9	1	3	270	0.00	30.163 
03:15	17.2	17.2	17.2	66	7.8	1	3	270	0.00	30.154 
03:20	17.2	17.2	17.2	66	7.8	2	4	270	0.00	30.154 
03:25	17.2	17.2	17.2	66	7.8	1	3	248	0.00	30.154 
03:30	17.0	17.0	17.0	66	7.6	1	3	248	0.00	30.160 
03:35	17.0	17.0	17.0	66	7.6	1	4	248	0.00	30.160 
03:40	16.9	16.9	16.9	66	7.5	1	3	270	0.00	30.160 
03:45	16.9	16.9	16.9	66	7.5	1	3	270	0.00	30.160 
03:50	16.7	16.7	16.7	67	7.7	0	2	270	0.00	30.160 
03:55	16.7	16.7	16.7	67	7.7	1	3	270	0.00	30.160 
04:00	16.7	16.7	16.7	67	7.7	1	4	248	0.00	30.155 
04:05	16.5	16.5	16.5	67	7.5	1	3	248	0.00	30.155 
04:10	16.5	16.5	16.5	67	7.5	1	4	248	0.00	30.155 
04:15	16.5	16.5	16.5	67	7.5	1	3	248	0.00	30.160 
04:20	16.4	16.4	16.4	68	7.7	1	4	248	0.00	30.160 
04:25	16.4	16.4	16.4	68	7.7	1	4	248	0.00	30.160 
04:30	16.2	16.2	16.2	68	7.5	1	3	248	0.00	30.167 
04:35	16.1	16.1	16.1	68	7.4	1	3	248	0.00	30.167 
04:40	16.1	16.1	16.1	69	7.8	1	3	248	0.00	30.167 
04:45	15.9	15.9	15.9	69	7.6	1	3	248	0.00	30.168 
04:50	15.9	15.9	15.9	69	7.6	1	2	248	0.00	30.168 
04:55	15.7	15.7	15.7	69	7.4	1	2	248	0.00	30.168 
05:00	15.7	15.7	15.7	69	7.4	1	3	248	0.00	30.170 
05:05	15.7	15.7	15.7	69	7.4	1	2	248	0.00	30.170 
05:10	15.6	15.6	15.6	69	7.3	0	2	248	0.00	30.170 
05:15	15.6	15.6	15.6	70	7.6	1	2	248	0.00	30.181 
05:20	15.6	15.6	15.6	70	7.6	1	5	248	0.00	30.181 
05:25	15.6	15.6	15.6	70	7.6	1	5	248	0.00	30.181 
05:30	15.6	15.6	15.6	70	7.6	1	3	270	0.00	30.185 
05:35	15.6	15.6	15.6	70	7.6	1	2	270	0.00	30.185 
05:40	15.4	15.4	15.4	70	7.4	0	2	270	0.00	30.185 
05:45	15.4	15.4	15.4	70	7.4	1	3	270	0.00	30.182 
05:50	15.4	15.4	15.4	70	7.4	1	2	270	0.00	30.182 
05:55	15.2	15.2	15.2	70	7.2	1	3	270	0.00	30.182 
06:00	15.2	15.2	15.2	70	7.2	1	2	270	0.00	30.182 
06:05	15.2	15.2	15.2	71	7.5	1	4	270	0.00	30.182 
06:10	15.1	15.1	15.1	71	7.4	1	3	248	0.00	30.182 
06:15	15.1	15.1	15.1	71	7.4	0	2	248	0.00	30.184 
06:20	15.1	15.1	15.1	71	7.4	1	3	248	0.00	30.184 
06:25	14.9	14.9	14.9	71	7.2	1	3	248	0.00	30.184 
06:30	14.8	14.8	14.8	71	7.1	0	3	248	0.00	30.183 
06:35	14.8	14.8	14.8	71	7.1	0	3	248	0.00	30.183 
06:40	14.6	14.6	14.6	71	6.9	0	3	248	0.00	30.183 
06:45	14.6	14.6	14.6	72	7.2	1	2	248	0.00	30.189 
06:50	14.4	14.4	14.4	72	7.1	1	3	248	0.00	30.189 
06:55	14.4	14.4	14.4	72	7.1	1	3	248	0.00	30.189 
07:00	14.6	14.6	14.6	72	7.2	0	2	248	0.00	30.199 
07:05	14.4	14.4	14.4	72	7.1	1	2	248	0.00	30.199 
07:10	14.4	14.4	14.4	72	7.1	0	3	248	0.00	30.199 
07:15	14.4	14.4	14.4	72	7.1	1	3	270	0.00	30.210 
07:20	14.3	14.3	14.3	72	7.0	1	5	270	0.00	30.210 
07:25	14.3	14.3	14.3	72	7.0	1	2	248	0.00	30.210 
07:30	14.3	14.3	14.3	72	7.0	1	3	248	0.00	30.216 
07:35	14.1	14.1	14.1	72	6.8	1	3	248	0.00	30.216 
07:40	14.1	14.1	14.1	72	6.8	2	4	270	0.00	30.216 
07:45	14.1	14.1	14.1	72	6.8	1	4	248	0.00	30.220 
07:50	14.1	14.1	14.1	72	6.8	1	5	248	0.00	30.220 
07:55	14.0	14.0	14.0	72	6.7	1	3	270	0.00	30.220 
08:00	14.0	14.0	14.0	72	6.7	2	4	248	0.00	30.225 
08:05	14.0	14.0	14.0	72	6.7	2	4	270	0.00	30.225 
08:10	14.1	14.1	14.1	72	6.8	2	4	270	0.00	30.225 
08:15	14.3	14.3	14.3	72	7.0	1	4	270	0.00	30.240 
08:20	14.4	14.4	14.4	71	6.7	2	4	270	0.00	30.240 
08:25	14.6	14.6	14.6	71	6.9	1	5	270	0.00	30.240 
08:30	14.6	14.6	14.6	71	6.9	1	4	270	0.00	30.238 
08:35	14.8	14.8	14.8	71	7.1	1	4	248	0.00	30.238 
08:40	14.9	14.9	14.9	70	6.9	2	4	270	0.00	30.238 
08:45	15.1	15.1	15.1	70	7.1	2	4	270	0.00	30.238 
08:50	15.4	15.4	15.4	70	7.4	1	3	248	0.00	30.238 
08:55	15.6	15.6	15.6	69	7.3	2	5	270	0.00	30.238 
09:00	15.7	15.7	15.7	69	7.4	2	4	270	0.00	30.238 
09:05	15.9	15.9	15.9	68	7.2	2	5	270	0.00	30.238 
09:10	16.1	16.1	16.1	68	7.4	2	5	292	0.00	30.238 
09:15	16.2	16.2	16.2	68	7.5	2	4	270	0.00	30.245 
09:20	16.4	16.4	16.4	67	7.4	2	5	270	0.00	30.245 
09:25	16.5	16.5	16.5	67	7.5	2	5	248	0.00	30.245 
09:30	16.7	16.7	16.7	66	7.3	2	4	248	0.00	30.246 
09:35	16.9	16.9	16.9	66	7.5	2	6	270	0.00	30.246 
09:40	16.9	16.9	16.9	66	7.5	2	7	270	0.00	30.246 
09:45	17.2	17.2	17.2	66	7.8	2	4	270	0.00	30.250 
09:50	17.3	17.3	17.3	65	7.6	2	6	248	0.00	30.250 
09:55	17.7	17.7	17.7	65	8.0	2	5	292	0.00	30.250 
10:00	17.8	17.8	17.8	65	8.1	2	5	270	0.00	30.241 
10:05	18.3	18.3	18.3	64	8.2	2	4	270	0.00	30.241 
10:10	18.3	18.3	18.3	64	8.2	3	9	270	0.00	30.241 
10:15	18.4	18.4	18.4	63	7.9	3	6	270	0.00	30.245 
10:20	18.4	18.4	18.4	64	8.3	3	6	270	0.00	30.245 
10:25	18.6	18.6	18.6	63	8.1	3	6	292	0.00	30.245 
10:30	18.9	18.9	18.9	63	8.4	2	5	315	0.00	30.237 
10:35	18.9	18.9	18.9	62	8.1	3	5	270	0.00	30.237 
10:40	19.2	19.2	19.2	62	8.3	2	4	270	0.00	30.237 
10:45	19.9	19.9	19.9	62	9.0	2	5	270	0.00	30.241 
10:50	20.2	20.2	20.2	61	8.9	2	4	270	0.00	30.241 
10:55	20.2	20.2	20.2	60	8.6	2	5	292	0.00	30.241 
11:00	20.3	20.3	20.3	59	8.3	2	5	270	0.00	30.238 
11:05	20.3	20.3	20.3	59	8.3	2	5	270	0.00	30.238 
11:10	20.3	20.3	20.3	59	8.3	3	4	270	0.00	30.238 
11:15	20.5	20.5	20.5	59	8.5	3	7	270	0.00	30.244 
11:20	20.8	20.8	20.8	58	8.4	2	5	270	0.00	30.244 
11:25	21.0	21.0	21.0	59	9.0	2	4	270	0.00	30.244 
11:30	21.3	21.3	21.3	58	8.9	2	6	270	0.00	30.251 
11:35	21.3	21.3	21.3	58	8.9	3	6	270	0.00	30.251 
11:40	21.6	21.6	21.6	57	8.8	3	9	270	0.00	30.251 
11:45	21.6	21.6	21.6	57	8.8	3	7	270	0.00	30.248 
11:50	21.9	21.9	21.9	56	8.6	2	6	270	0.00	30.248 
11:55	22.1	22.1	22.1	56	8.8	3	6	270	0.00	30.248 
12:00	22.2	22.2	22.2	57	9.3	2	5	270	0.00	30.250 
12:05	22.5	22.5	22.5	58	10.0	1	6	292	0.00	30.250 
12:10	22.9	22.9	22.9	57	10.0	2	4	292	0.00	30.250 
12:15	23.0	23.0	23.0	56	9.7	2	4	248	0.00	30.246 
12:20	23.2	23.2	23.2	55	9.5	2	4	248	0.00	30.246 
12:25	23.3	23.3	23.3	55	9.6	2	5	270	0.00	30.246 
12:30	23.6	23.6	23.6	55	9.8	2	5	248	0.00	30.238 
12:35	23.6	23.6	23.6	55	9.8	2	6	315	0.00	30.238 
12:40	23.6	23.6	23.6	54	9.4	2	5	270	0.00	30.238 
12:45	23.8	23.8	23.8	54	9.6	2	6	270	0.00	30.237 
12:50	24.1	24.1	24.1	53	9.5	2	5	270	0.00	30.237 
12:55	24.1	24.1	24.1	53	9.5	2	10	248	0.00	30.237 
13:00	24.2	24.2	24.2	54	10.0	2	6	270	0.00	30.238 
13:05	24.2	24.2	24.2	53	9.6	3	5	270	0.00	30.238 
13:10	24.2	24.2	24.2	53	9.6	2	5	270	0.00	30.238 
13:15	24.4	24.4	24.4	53	9.8	2	7	270	0.00	30.235 
13:20	24.4	24.4	24.4	53	9.8	3	7	248	0.00	30.235 
13:25	24.4	24.4	24.4	52	9.3	2	6	270	0.00	30.235 
13:30	24.5	24.5	24.5	52	9.4	2	6	248	0.00	30.236 
13:35	24.5	24.5	24.5	52	9.4	3	7	270	0.00	30.236 
13:40	24.7	24.7	24.7	53	10.0	2	4	270	0.00	30.236 
13:45	25.0	25.0	25.0	53	10.3	2	6	248	0.00	30.236 
13:50	24.8	24.8	24.8	52	9.7	3	7	248	0.00	30.236 
13:55	24.4	24.4	24.4	52	9.3	3	9	248	0.00	30.236 
14:00	24.4	24.4	24.4	54	10.2	3	8	248	0.00	30.235 
14:05	24.4	24.4	24.4	53	9.8	3	10	248	0.00	30.235 
14:10	24.4	24.4	24.4	54	10.2	2	6	248	0.00	30.235 
14:15	24.4	24.4	24.4	54	10.2	3	11	270	0.00	30.234 
14:20	24.5	24.5	24.5	53	9.8	3	7	248	0.00	30.234 
14:25	24.7	24.7	24.7	54	10.5	2	6	248	0.00	30.234 
14:30	25.0	25.0	25.0	53	10.3	2	10	248	0.00	30.234 
14:35	25.0	25.0	25.0	53	10.3	3	7	270	0.00	30.234 
14:40	25.0	25.0	25.0	52	9.9	2	9	248	0.00	30.234 
14:45	24.8	24.8	24.8	52	9.7	3	6	248	0.00	30.236 
14:50	24.8	24.8	24.8	53	10.1	3	9	248	0.00	30.236 
14:55	24.8	24.8	24.8	52	9.7	3	9	248	0.00	30.236 
15:00	24.8	19.8	24.8	52	9.7	4	7	270	0.00	30.235 
15:05	25.1	25.1	25.1	52	10.0	3	11	248	0.00	30.235 
15:10	25.3	20.3	25.3	51	9.7	4	7	248	0.00	30.235 
15:15	25.3	25.3	25.3	52	10.2	3	7	270	0.00	30.235 
15:20	25.4	25.4	25.4	52	10.3	3	9	270	0.00	30.235 
15:25	25.6	25.6	25.6	52	10.4	3	6	270	0.00	30.235 
15:30	25.4	20.5	25.4	51	9.8	4	7	270	0.00	30.235 
15:35	25.7	25.7	25.7	52	10.5	3	8	248	0.00	30.235 
15:40	25.6	20.7	25.6	51	10.0	4	9	270	0.00	30.235 
15:45	25.3	25.3	25.3	51	9.7	3	6	270	0.00	30.233 
15:50	25.1	25.1	25.1	51	9.5	3	9	270	0.00	30.233 
15:55	25.3	25.3	25.3	53	10.6	2	5	270	0.00	30.233 
16:00	25.6	25.6	25.6	54	11.3	2	5	248	0.00	30.234 
16:05	25.6	25.6	25.6	54	11.3	3	10	248	0.00	30.234 
16:10	25.3	25.3	25.3	54	11.0	3	10	248	0.00	30.234 
16:15	25.3	25.3	25.3	54	11.0	3	6	270	0.00	30.235 
16:20	25.1	25.1	25.1	54	10.8	2	5	248	0.00	30.235 
16:25	25.0	25.0	25.0	54	10.7	3	7	270	0.00	30.235 
16:30	24.7	24.7	24.7	55	10.9	3	7	248	0.00	30.236 
16:35	25.0	25.0	25.0	55	11.1	2	5	248	0.00	30.236 
16:40	25.0	25.0	25.0	54	10.7	2	5	270	0.00	30.236 
16:45	24.8	24.8	24.8	54	10.5	2	9	292	0.00	30.237 
16:50	24.8	24.8	24.8	55	11.0	2	4	248	0.00	30.237 
16:55	24.7	24.7	24.7	55	10.9	2	9	270	0.00	30.237 
17:00	24.7	24.7	24.7	54	10.5	2	5	248	0.00	30.235 
17:05	24.5	24.5	24.5	54	10.3	3	6	270	0.00	30.235 
17:10	24.4	24.4	24.4	55	10.6	2	7	270	0.00	30.235 
17:15	24.4	24.4	24.4	54	10.2	2	5	248	0.00	30.235 
17:20	24.4	24.4	24.4	55	10.6	2	7	248	0.00	30.235 
17:25	24.1	24.1	24.1	55	10.3	2	6	270	0.00	30.235 
17:30	24.1	24.1	24.1	55	10.3	2	6	270	0.00	30.232 
17:35	23.9	23.9	23.9	55	10.1	1	5	270	0.00	30.232 
17:40	23.8	23.8	23.8	55	10.0	2	5	248	0.00	30.232 
17:45	23.8	23.8	23.8	55	10.0	2	4	248	0.00	30.232 
17:50	23.6	23.6	23.6	56	10.2	2	6	270	0.00	30.232 
17:55	23.5	23.5	23.5	56	10.1	2	5	248	0.00	30.232 
18:00	23.3	23.3	23.3	56	10.0	2	5	270	0.00	30.228 
18:05	23.2	23.2	23.2	56	9.9	1	4	248	0.00	30.228 
18:10	23.0	23.0	23.0	57	10.1	1	5	248	0.00	30.228 
18:15	22.9	22.9	22.9	58	10.4	1	4	248	0.00	30.235 
18:20	22.7	22.7	22.7	58	10.2	1	4	248	0.00	30.235 
18:25	22.5	22.5	22.5	58	10.0	1	5	248	0.00	30.235 
18:30	22.4	22.4	22.4	58	9.9	1	3	248	0.00	30.224 
18:35	22.4	22.4	22.4	59	10.3	1	3	248	0.00	30.224 
18:40	22.2	22.2	22.2	59	10.1	2	6	248	0.00	30.224 
18:45	22.1	22.1	22.1	59	10.0	1	3	248	0.00	30.229 
18:50	21.9	21.9	21.9	59	9.8	1	5	248	0.00	30.229 
18:55	21.9	21.9	21.9	59	9.8	1	5	248	0.00	30.229 
19:00	21.8	21.8	21.8	59	9.7	0	3	270	0.00	30.227 
19:05	21.8	21.8	21.8	60	10.1	0	2	270	0.00	30.227 
19:10	21.6	21.6	21.6	60	9.9	0	2	270	0.00	30.227 
19:15	21.6	21.6	21.6	60	9.9	1	5	248	0.00	30.235 
19:20	21.6	21.6	21.6	60	9.9	0	2	248	0.00	30.235 
19:25	21.6	21.6	21.6	60	9.9	1	4	248	0.00	30.235 
19:30	21.6	21.6	21.6	60	9.9	1	4	248	0.00	30.240 
19:35	21.6	21.6	21.6	60	9.9	1	4	248	0.00	30.240 
19:40	21.6	21.6	21.6	60	9.9	0	3	248	0.00	30.240 
19:45	21.4	21.4	21.4	60	9.7	1	3	248	0.00	30.241 
19:50	21.4	21.4	21.4	60	9.7	1	4	225	0.00	30.241 
19:55	21.4	21.4	21.4	60	9.7	1	3	248	0.00	30.241 
20:00	21.3	21.3	21.3	61	10.0	0	3	248	0.00	30.241 
20:05	21.3	21.3	21.3	61	10.0	1	3	270	0.00	30.241 
20:10	21.3	21.3	21.3	60	9.6	1	4	248	0.00	30.241 
20:15	21.3	21.3	21.3	61	10.0	0	2	248	0.00	30.228 
20:20	21.1	21.1	21.1	61	9.8	1	3	248	0.00	30.228 
20:25	21.1	21.1	21.1	61	9.8	1	2	292	0.00	30.228 
20:30	21.1	21.1	21.1	61	9.8	0	2	270	0.00	30.225 
20:35	21.1	21.1	21.1	62	10.1	0	2	270	0.00	30.225 
20:40	21.0	21.0	21.0	62	10.1	0	2	270	0.00	30.225 
20:45	20.8	20.8	20.8	62	9.9	0	2	270	0.00	30.224 
20:50	20.8	20.8	20.8	62	9.9	0	2	270	0.00	30.224 
20:55	20.6	20.6	20.6	63	10.0	0	1	270	0.00	30.224 
21:00	20.5	20.5	20.5	63	9.9	0	1	270	0.00	30.219 
21:05	20.3	20.3	20.3	64	10.1	0	2	270	0.00	30.219 
21:10	20.2	20.2	20.2	64	10.0	0	3	270	0.00	30.219 
21:15	20.2	20.2	20.2	64	10.0	0	1	270	0.00	30.217 
21:20	20.0	20.0	20.0	65	10.2	0	2	270	0.00	30.217 
21:25	19.9	19.9	19.9	65	10.1	0	1	270	0.00	30.217 
21:30	19.7	19.7	19.7	65	9.9	0	0	---	0.00	30.220 
21:35	19.5	19.5	19.5	66	10.0	0	1	270	0.00	30.220 
21:40	19.4	19.4	19.4	66	9.9	0	1	270	0.00	30.220 
21:45	19.4	19.4	19.4	67	10.3	0	1	270	0.00	30.224 
21:50	19.2	19.2	19.2	67	10.1	0	2	270	0.00	30.224 
21:55	19.2	19.2	19.2	67	10.1	0	0	---	0.00	30.224 
22:00	19.2	19.2	19.2	68	10.4	0	1	270	0.00	30.222 
22:05	19.1	19.1	19.1	68	10.3	0	0	---	0.00	30.222 
22:10	18.9	18.9	18.9	68	10.1	0	1	270	0.00	30.222 
22:15	18.8	18.8	18.8	68	10.0	0	1	270	0.00	30.214 
22:20	18.6	18.6	18.6	69	10.2	0	0	---	0.00	30.214 
22:25	18.6	18.6	18.6	69	10.2	0	1	270	0.00	30.214 
22:30	18.8	18.8	18.8	70	10.7	0	1	270	0.00	30.230 
22:35	18.9	18.9	18.9	70	10.8	0	1	270	0.00	30.230 
22:40	19.1	19.1	19.1	70	11.0	0	1	270	0.00	30.230 
22:45	19.2	19.2	19.2	70	11.0	0	1	270	0.00	30.218 
22:50	19.4	19.4	19.4	70	11.2	0	1	270	0.00	30.218 
22:55	19.4	19.4	19.4	70	11.2	0	1	270	0.00	30.218 
23:00	19.5	19.5	19.5	70	11.3	0	1	270	0.00	30.219 
23:05	19.7	19.7	19.7	70	11.5	0	1	270	0.00	30.219 
23:10	19.7	19.7	19.7	70	11.5	0	1	270	0.00	30.219 
23:15	19.7	19.7	19.7	70	11.5	0	2	270	0.00	30.215 
23:20	19.7	19.7	19.7	69	11.2	0	2	270	0.00	30.215 
23:25	19.7	19.7	19.7	69	11.2	0	2	270	0.00	30.215 
23:30	19.7	19.7	19.7	69	11.2	0	2	270	0.00	30.213 
23:35	19.5	19.5	19.5	69	11.0	0	2	270	0.00	30.213 
23:40	19.5	19.5	19.5	69	11.0	0	1	270	0.00	30.213 
23:45	19.5	19.5	19.5	69	11.0	0	2	270	0.00	30.210 
23:50	19.5	19.5	19.5	69	11.0	0	1	270	0.00	30.210 
23:55	19.5	19.5	19.5	69	11.0	0	1	270	0.00	30.210 

CoCoRaHS
IN-AL-39
A2 Web Hosting
Creative Commons License
GoDaddy
search engine by freefind advanced

loaded 2018-11-17 11:56:03 • last modified 2010-11-18 10:43:29
Privacy PolicyDisclaimer
• wx.awcolley.com is powered by PmWiki v.2002016 •
• all content (unless otherwise noted) © 2018 A W Colley